LIMC/MXP METAR and TAF weather

Enter ICAO airport designator
Station Type Date Time Source
LIMC METAR 2020/09/22 18:20 UTC NOAA

LIMC 221820Z 21002KT CAVOK 18/17 Q1013 NOSIG


Station Type Date Time Source
LIMC Decoded METAR 2020/09/22 18:20 UTC NOAA

Milano / Malpensa, Italy (LIMC) 45-37N 008-44E 211M
Sep 22, 2020 - 02:20 PM EDT / 2020.09.22 1820 UTC
Wind: from the SSW (210 degrees) at 2 MPH (2 KT):0
Visibility: greater than 7 mile(s):0
Temperature: 64 F (18 C)
Dew Point: 62 F (17 C)
Relative Humidity: 93%
Pressure (altimeter): 29.91 in. Hg (1013 hPa)
ob: LIMC 221820Z 21002KT CAVOK 18/17 Q1013 NOSIG
cycle: 18

Station Type Date Time Source
LIMC TAF 2020/09/22 18:25 UTC NOAA

TAF LIMC 221700Z 2218/2324 VRB05KT 9999 BKN060
TEMPO 2218/2314 4000 TSRA

Example: see airport list